Time;durP1;ratioP1;P1;durP2;ratioP2;P2;SDS_P1;SDS_P2;PMS_P1;PMS_P2;Temp;Humidity;BMP_temperature;BMP_pressure;BME280_temperature;BME280_humidity;BME280_pressure;Samples;Min_cycle;Max_cycle;Signal;HPM_P1;HPM_P2
2023/10/04 00:00:54;;;;;;;;;;;;;;;;;;5095185;28;19995;-75
2023/10/04 00:03:23;;;;;;;;;;;;;;;;;;5095098;28;20355;-75
2023/10/04 00:05:49;;;;;;;;;;;;;;;;;;5093801;28;19904;-73
2023/10/04 00:08:15;;;;;;;;;;;;;;;;;;5094780;28;19911;-73
2023/10/04 00:10:41;;;;;;;;;;;;;;;;;;5094992;28;19904;-75
2023/10/04 00:13:07;;;;;;;;;;;;;;;;;;5094954;28;19904;-73
2023/10/04 00:15:33;;;;;;;;;;;;;;;;;;5093332;28;20271;-75
2023/10/04 00:17:59;;;;;;;;;;;;;;;;;;5094954;28;20308;-75
2023/10/04 00:20:31;;;;;;;;;;;;;;;;;;5094863;28;20332;-75
2023/10/04 00:22:57;;;;;;;;;;;;;;;;;;5094243;28;20010;-73
2023/10/04 00:25:23;;;;;;;;;;;;;;;;;;5094820;28;19904;-73
2023/10/04 00:27:49;;;;;;;;;;;;;;;;;;5094723;28;19904;-73
2023/10/04 00:30:17;;;;;;;;;;;;;;;;;;5094289;28;19911;-75
2023/10/04 00:32:44;;;;;;;;;;;;;;;;;;5094638;28;20351;-75
2023/10/04 00:35:19;;;;;;;;;;;;;;;;;;5094146;28;19904;-75
2023/10/04 00:37:45;;;;;;;;;;;;;;;;;;5094930;28;20383;-73
2023/10/04 00:40:18;;;;;;;258.25;191.40;;;;;;;;;;5092861;28;20381;-75
2023/10/04 00:42:44;;;;;;;;;;;;;;;;;;5094158;28;20051;-75
2023/10/04 00:45:13;;;;;;;;;;;;;;;;;;5095098;28;20344;-75
2023/10/04 00:47:39;;;;;;;;;;;;;;;;;;5094385;28;19926;-75
2023/10/04 00:50:14;;;;;;;;;;;;;;;;;;5093950;28;19904;-75
2023/10/04 00:52:40;;;;;;;;;;;;;;;;;;5094933;28;20244;-75
2023/10/04 00:55:07;;;;;;;;;;;;;;;;;;5094243;28;19910;-73
2023/10/04 00:57:34;;;;;;;;;;;;;;;;;;5093614;28;19935;-73
2023/10/04 01:00:03;;;;;;;;;;;;;;;;;;5094240;28;19904;-73
2023/10/04 01:02:33;;;;;;;;;;;;;;;;;;5094282;28;19914;-73
2023/10/04 01:05:00;;;;;;;;;;;;;;;;;;5093719;28;19904;-73
2023/10/04 01:07:26;;;;;;;;;;;;;;;;;;5094115;28;19904;-73
2023/10/04 01:09:52;;;;;;;;;;;;;;;;;;5094298;28;19915;-74
2023/10/04 01:12:18;;;;;;;;;;;;;;;;;;5093771;28;19995;-74
2023/10/04 01:14:48;;;;;;;;;;;;;;;;;;5094017;28;20372;-74
2023/10/04 01:17:14;;;;;;;;;;;;;;;;;;5092665;28;19904;-73
2023/10/04 01:19:40;;;;;;;;;;;;;;;;;;5093580;28;19911;-73
2023/10/04 01:22:06;;;;;;;;;;;;;;;;;;5094198;28;19911;-73
2023/10/04 01:24:41;;;;;;;;;;;;;;;;;;5093340;28;20368;-73
2023/10/04 01:27:07;;;;;;;;;;;;;;;;;;5093993;28;19904;-73
2023/10/04 01:29:33;;;;;;;;;;;;;;;;;;5094005;28;19911;-73
2023/10/04 01:31:59;;;;;;;;;;;;;;;;;;5093491;28;19904;-74
2023/10/04 01:34:25;;;;;;;;;;;;;;;;;;5092588;28;20383;-73
2023/10/04 01:36:51;;;;;;;;;;;;;;;;;;5092658;28;19904;-75
2023/10/04 01:39:19;;;;;;;;;;;;;;;;;;5093511;28;20328;-75
2023/10/04 01:41:44;;;;;;;;;;;;;;;;;;5093826;28;19904;-75
2023/10/04 01:44:11;;;;;;;;;;;;;;;;;;5093725;28;19919;-74
2023/10/04 01:46:37;;;;;;;;;;;;;;;;;;5093340;28;19904;-75
2023/10/04 01:49:03;;;;;;;;;;;;;;;;;;5093723;28;19949;-74
2023/10/04 01:51:29;;;;;;;;;;;;;;;;;;5093788;28;19908;-74
2023/10/04 01:53:58;;;;;;;;;;;;;;;;;;5093219;28;19911;-75
2023/10/04 01:56:24;;;;;;;;;;;;;;;;;;5093798;28;19904;-75
2023/10/04 01:58:51;;;;;;;;;;;;;;;;;;5093678;28;19926;-75
2023/10/04 02:01:17;;;;;;;;;;;;;;;;;;5093331;28;19904;-74
2023/10/04 02:03:44;;;;;;;;;;;;;;;;;;5093636;28;19918;-75
2023/10/04 02:06:10;;;;;;;;;;;;;;;;;;5093550;28;19908;-73
2023/10/04 02:08:36;;;;;;;;;;;;;;;;;;5093152;28;20003;-73
2023/10/04 02:11:03;;;;;;;;;;;;;;;;;;5096520;28;19944;-74
2023/10/04 02:13:32;;;;;;;;;;;;;;;;;;5097512;28;20256;-73
2023/10/04 02:15:59;;;;;;;;;;;;;;;;;;5097179;28;19957;-73
2023/10/04 02:18:25;;;;;;;;;;;;;;;;;;5098084;28;19911;-74
2023/10/04 02:20:53;;;;;;;;;;;;;;;;;;5096884;28;19911;-73
2023/10/04 02:23:19;;;;;;;;;;;;;;;;;;5096885;28;19923;-73
2023/10/04 02:25:45;;;;;;;;;;;;;;;;;;5097313;28;19904;-74
2023/10/04 02:28:11;;;;;;;;;;;;;;;;;;5096608;28;19904;-74
2023/10/04 02:30:37;;;;;;;;;;;;;;;;;;5097041;28;19949;-74
2023/10/04 02:33:08;;;;;;;;;;;;;;;;;;5096963;28;19908;-75
2023/10/04 02:35:39;;;;;;;;;;;;;;;;;;5096556;28;19907;-74
2023/10/04 02:38:16;;;;;;;;;;;;;;;;;;5095711;28;19947;-75
2023/10/04 02:40:42;;;;;;;;;;;;;;;;;;5096825;28;19907;-75
2023/10/04 02:43:08;;;;;;;;;;;;;;;;;;5096428;28;19912;-77
2023/10/04 02:45:36;;;;;;;;;;;;;;;;;;5096841;28;19904;-73
2023/10/04 02:48:04;;;;;;;;;;;;;;;;;;5096693;28;19908;-75
2023/10/04 02:50:30;;;;;;;;;;;;;;;;;;5094992;28;19994;-75
2023/10/04 02:52:56;;;;;;;;;;;;;;;;;;5096814;28;19950;-75
2023/10/04 02:55:22;;;;;;;;;;;;;;;;;;5096675;28;19909;-74
2023/10/04 02:57:49;;;;;;;;;;;;;;;;;;5096173;28;20378;-74
2023/10/04 03:00:19;;;;;;;;;;;;;;;;;;5096403;28;19949;-74
2023/10/04 03:02:45;;;;;;;;;;;;;;;;;;5096352;28;19912;-73
2023/10/04 03:05:18;;;;;;;;;;;;;;;;;;5096052;28;19904;-74
2023/10/04 03:07:44;;;;;;;;;;;;;;;;;;5095091;28;19904;-73
2023/10/04 03:10:11;;;;;;;;;;;;;;;;;;5095891;28;19908;-74
2023/10/04 03:12:37;;;;;;;;;;;;;;;;;;5096862;28;19904;-74
2023/10/04 03:15:03;;;;;;;;;;;;;;;;;;5096236;28;19904;-73
2023/10/04 03:17:29;;;;;;;;;;;;;;;;;;5094464;28;19915;-73
2023/10/04 03:19:55;;;;;;;;;;;;;;;;;;5096120;28;19903;-74
2023/10/04 03:22:23;;;;;;;;;;;;;;;;;;5095728;28;19908;-73
2023/10/04 03:24:49;;;;;;;;;;;;;;;;;;5094372;28;20427;-73
2023/10/04 03:27:15;;;;;;;;;;;;;;;;;;5095981;28;19973;-74
2023/10/04 03:29:41;;;;;;;;;;;;;;;;;;5096114;28;19911;-74
2023/10/04 03:32:07;;;;;;;;;;;;;;;;;;5095575;28;19904;-74
2023/10/04 03:34:33;;;;;;;;;;;;;;;;;;5095868;28;20003;-74
2023/10/04 03:37:08;;;;;;;;;;;;;;;;;;5095770;28;19911;-74
2023/10/04 03:39:35;;;;;;;;;;;;;;;;;;5095358;28;20275;-74
2023/10/04 03:42:01;;;;;;;;;;;;;;;;;;5094368;28;20284;-73
2023/10/04 03:44:27;;;;;;;;;;;;;;;;;;5095536;28;19912;-75
2023/10/04 03:46:57;;;;;;;;;;;;;;;;;;5095252;28;19904;-74
2023/10/04 03:49:22;;;;;;;;;;;;;;;;;;5095531;28;19915;-75
2023/10/04 03:51:56;;;;;;;;;;;;;;;;;;5095473;28;19904;-75
2023/10/04 03:54:22;;;;;;;;;;;;;;;;;;5093704;28;19908;-75
2023/10/04 03:56:49;;;;;;;;;;;;;;;;;;5094140;28;20017;-75
2023/10/04 03:59:16;;;;;;;;;;;;;;;;;;5095004;28;19911;-75
2023/10/04 04:01:42;;;;;;;;;;;;;;;;;;5093976;28;19907;-75
2023/10/04 04:04:14;;;;;;;;;;;;;;;;;;5095258;28;19995;-75
2023/10/04 04:06:40;;;;;;;;;;;;;;;;;;5094879;28;20057;-75
2023/10/04 04:09:09;;;;;;;;;;;;;;;;;;5095280;28;19911;-74
2023/10/04 04:11:35;;;;;;;;;;;;;;;;;;5093924;28;19904;-75
2023/10/04 04:14:01;;;;;;;;;;;;;;;;;;5094753;28;20379;-75
2023/10/04 04:16:27;;;;;;;;;;;;;;;;;;5093725;28;19904;-73
2023/10/04 04:18:56;;;;;;;;;;;;;;;;;;5093675;28;20279;-75
2023/10/04 04:21:29;;;;;;;;;;;;;;;;;;5094480;28;19940;-75
2023/10/04 04:23:56;;;;;;;;;;;;;;;;;;5088377;28;19923;-72
2023/10/04 04:26:23;;;;;;;;;;;;;;;;;;5073117;28;20253;-75
2023/10/04 04:28:51;;;;;;;;;;;;;;;;;;5074331;28;19947;-75
2023/10/04 04:31:20;;;;;;;;;;;;;;;;;;5074496;28;19932;-75
2023/10/04 04:33:46;;;;;;;;;;;;;;;;;;5073939;28;19905;-73
2023/10/04 04:36:46;;;;;;;;;;;;;;;;;;5073543;28;20268;-72
2023/10/04 04:39:05;;;;;;;;;;;;;;;;;;5074001;28;20275;-75
2023/10/04 04:41:33;;;;;;;;;;;;;;;;;;5074069;28;20348;-75
2023/10/04 04:44:07;;;;;;;;;;;;;;;;;;5074389;28;19916;-75
2023/10/04 04:46:34;;;;;;;;;;;;;;;;;;5072897;28;19911;-75
2023/10/04 04:49:00;;;;;;;;;;;;;;;;;;5073769;28;19991;-75
2023/10/04 04:51:26;;;;;;;;;;;;;;;;;;5072930;28;19939;-75
2023/10/04 04:53:53;;;;;;;;;;;;;;;;;;5072758;28;19909;-75
2023/10/04 04:56:21;;;;;;;;;;;;;;;;;;5071651;28;19915;-75
2023/10/04 04:58:47;;;;;;;;;;;;;;;;;;5071997;28;19904;-75
2023/10/04 05:01:14;;;;;;;;;;;;;;;;;;5072033;28;19911;-75
2023/10/04 05:03:42;;;;;;;;;;;;;;;;;;5070907;28;19920;-75
2023/10/04 05:06:09;;;;;;;;;;;;;;;;;;5073174;28;20003;-75
2023/10/04 05:08:36;;;;;;;;;;;;;;;;;;5073267;28;19904;-75
2023/10/04 05:11:02;;;;;;;;;;;;;;;;;;5073513;28;19909;-75
2023/10/04 05:13:28;;;;;;;;;;;;;;;;;;5072851;28;19904;-74
2023/10/04 05:15:54;;;;;;;;;;;;;;;;;;5073998;28;19911;-74
2023/10/04 05:18:22;;;;;;;;;;;;;;;;;;5093347;28;19912;-74
2023/10/04 05:20:53;;;;;;;;;;;;;;;;;;5089042;28;19943;-72
2023/10/04 05:23:21;;;;;;;;;;;;;;;;;;5091317;28;19974;-71
2023/10/04 05:25:47;;;;;;;;;;;;;;;;;;5091357;28;19904;-72
2023/10/04 05:28:13;;;;;;;187.65;160.88;;;;;;;;;;5089253;28;19912;-72
2023/10/04 05:30:41;;;;;;;;;;;;;;;;;;5090790;28;20024;-72
2023/10/04 05:33:07;;;;;;;;;;;;;;;;;;5090042;28;19908;-71
2023/10/04 05:35:34;;;;;;;;;;;;;;;;;;5090348;28;20053;-72
2023/10/04 05:38:03;;;;;;;;;;;;;;;;;;5088845;28;19908;-69
2023/10/04 05:40:29;;;;;;;424.02;240.95;;;;;;;;;;5074821;28;20424;-72
2023/10/04 05:42:56;;;;;;;410.23;230.70;;;;;;;;;;5090280;28;20025;-71
2023/10/04 05:45:22;;;;;;;376.73;224.30;;;;;;;;;;5085439;28;20044;-69
2023/10/04 05:47:50;;;;;;;335.42;211.48;;;;;;;;;;5085178;28;20019;-70
2023/10/04 05:50:23;;;;;;;356.10;218.68;;;;;;;;;;5088704;28;20024;-70
2023/10/04 05:52:50;;;;;;;264.75;184.10;;;;;;;;;;5091146;28;20111;-70
2023/10/04 05:55:17;;;;;;;334.92;212.80;;;;;;;;;;5083226;28;20016;-71
2023/10/04 05:57:46;;;;;;;306.33;203.98;;;;;;;;;;5082020;28;20089;-70
2023/10/04 06:00:57;;;;;;;;;;;;;;;;;;5085517;28;20717;-70
2023/10/04 06:03:00;;;;;;;;;;;;;;;;;;5084914;28;19970;-70
2023/10/04 06:05:27;;;;;;;;;;;;;;;;;;5090573;28;19994;-69
2023/10/04 06:07:56;;;;;;;;;;;;;;;;;;5093987;28;20378;-70
2023/10/04 06:10:23;;;;;;;;;;;;;;;;;;5082411;28;19912;-70
2023/10/04 06:12:51;;;;;;;;;;;;;;;;;;5089570;28;19915;-70
2023/10/04 06:15:17;;;;;;;;;;;;;;;;;;5094246;28;19907;-71
2023/10/04 06:17:43;;;;;;;;;;;;;;;;;;5093556;28;20496;-70
2023/10/04 06:20:23;;;;;;;;;;;;;;;;;;5085937;28;19919;-69
2023/10/04 06:22:49;;;;;;;;;;;;;;;;;;5080501;28;19912;-69
2023/10/04 06:25:15;;;;;;;;;;;;;;;;;;5094634;28;19911;-69
2023/10/04 06:27:42;;;;;;;;;;;;;;;;;;5082986;28;19927;-70
2023/10/04 06:30:08;;;;;;;;;;;;;;;;;;5086325;28;19953;-69
2023/10/04 06:32:37;;;;;;;;;;;;;;;;;;5099137;28;19950;-67
2023/10/04 06:35:03;;;;;;;;;;;;;;;;;;5078925;28;19911;-72
2023/10/04 06:37:29;;;;;;;;;;;;;;;;;;5088348;28;19912;-71
2023/10/04 06:39:56;;;;;;;;;;;;;;;;;;5091025;28;19908;-71
2023/10/04 06:42:22;;;;;;;;;;;;;;;;;;5089063;28;19908;-70
2023/10/04 06:44:50;;;;;;;;;;;;;;;;;;5091039;28;19920;-72
2023/10/04 06:47:17;;;;;;;;;;;;;;;;;;5091699;28;19931;-70
2023/10/04 06:49:44;;;;;;;;;;;;;;;;;;5093238;28;19939;-69
2023/10/04 06:52:10;;;;;;;;;;;;;;;;;;5080711;28;19908;-69
2023/10/04 06:54:36;;;;;;;;;;;;;;;;;;5091537;28;20401;-69
2023/10/04 06:57:03;;;;;;;;;;;;;;;;;;5091399;28;20401;-72
2023/10/04 06:59:30;;;;;;;;;;;;;;;;;;5092328;28;20021;-72
2023/10/04 07:01:57;;;;;;;;;;;;;;;;;;5089289;28;20038;-72
2023/10/04 07:04:23;;;;;;;;;;;;;;;;;;5079495;28;19920;-70
2023/10/04 07:06:49;;;;;;;;;;;;;;;;;;5095753;28;19915;-71
2023/10/04 07:09:15;;;;;;;;;;;;;;;;;;5091612;28;20260;-69
2023/10/04 07:11:41;;;;;;;;;;;;;;;;;;5088953;28;20271;-70
2023/10/04 07:14:07;;;;;;;;;;;;;;;;;;5079786;28;20000;-69
2023/10/04 07:16:35;;;;;;;;;;;;;;;;;;5096602;28;19916;-71
2023/10/04 07:19:03;;;;;;;;;;;;;;;;;;5088470;28;20021;-71
2023/10/04 07:21:29;;;;;;;;;;;;;;;;;;5093133;28;19939;-67
2023/10/04 07:23:55;;;;;;;;;;;;;;;;;;5088302;28;20280;-68
2023/10/04 07:26:21;;;;;;;;;;;;;;;;;;5082536;28;19916;-67
2023/10/04 07:30:35;;;;;;;498.13;337.63;;;;;;;;;;5037704;28;20877;-70
2023/10/04 07:35:28;;;;;;;;;;;;;;;;;;5087527;27;19917;-68
2023/10/04 07:37:54;;;;;;;;;;;;;;;;;;5085938;28;19912;-71
2023/10/04 07:40:20;;;;;;;;;;;;;;;;;;5084631;28;19947;-72
2023/10/04 07:42:46;;;;;;;;;;;;;;;;;;5081387;28;19956;-73
2023/10/04 07:45:12;;;;;;;;;;;;;;;;;;5073502;28;19946;-73
2023/10/04 07:47:38;;;;;;;;;;;;;;;;;;5105218;28;19916;-70
2023/10/04 07:50:05;;;;;;;;;;;;;;;;;;5106952;28;19908;-71
2023/10/04 07:52:31;;;;;;;;;;;;;;;;;;5081187;28;20008;-72
2023/10/04 07:54:59;;;;;;;;;;;;;;;;;;5087455;28;20379;-72
2023/10/04 07:58:06;;;;;;;596.92;324.52;;;;;;;;;;5107860;27;20415;-71
2023/10/04 08:02:23;;;;;;;596.20;263.00;;;;;;;;;;5062040;28;20764;-71
2023/10/04 08:04:50;;;;;;;;;;;;;;;;;;5067214;28;20602;-72
2023/10/04 08:07:18;;;;;;;;;;;;;;;;;;5081684;28;20011;-72
2023/10/04 08:09:44;;;;;;;;;;;;;;;;;;5082191;28;19923;-72
2023/10/04 08:12:10;;;;;;;;;;;;;;;;;;5059218;28;19915;-72
2023/10/04 08:14:36;;;;;;;;;;;;;;;;;;5040686;28;19917;-71
2023/10/04 08:17:02;;;;;;;;;;;;;;;;;;5068016;28;20317;-71
2023/10/04 08:19:28;;;;;;;;;;;;;;;;;;5051655;28;20283;-71
2023/10/04 08:21:54;;;;;;;;;;;;;;;;;;5068347;28;19938;-71
2023/10/04 08:24:20;;;;;;;;;;;;;;;;;;5089378;28;19947;-72
2023/10/04 08:26:50;;;;;;;;;;;;;;;;;;5087636;28;19947;-74
2023/10/04 08:30:41;;;;;;;;;;;;;;;;;;5108847;27;20393;-75
2023/10/04 08:38:49;;;;;;;394.77;250.45;;;;;;;;;;5108343;27;20401;-78
2023/10/04 08:41:16;;;;;;;;;;;;;;;;;;5109565;28;20016;-75
2023/10/04 08:43:43;;;;;;;;;;;;;;;;;;5106774;28;19999;-77
2023/10/04 08:48:29;;;;;;;514.75;244.32;;;;;;;;;;5062264;28;20427;-75
2023/10/04 08:50:56;;;;;;;;;;;;;;;;;;5061912;28;20931;-82
2023/10/04 08:53:22;;;;;;;;;;;;;;;;;;5067688;28;19908;-76
2023/10/04 08:55:51;;;;;;;;;;;;;;;;;;5069144;28;19911;-74
2023/10/04 08:58:17;;;;;;;;;;;;;;;;;;5069509;28;19904;-70
2023/10/04 09:00:43;;;;;;;;;;;;;;;;;;5060571;28;19943;-70
2023/10/04 09:03:09;;;;;;;;;;;;;;;;;;5065659;28;19908;-70
2023/10/04 09:05:36;;;;;;;;;;;;;;;;;;5067398;28;19908;-69
2023/10/04 09:08:04;;;;;;;;;;;;;;;;;;5067084;28;20007;-70
2023/10/04 09:10:32;;;;;;;;;;;;;;;;;;5066736;28;19958;-70
2023/10/04 09:12:59;;;;;;;;;;;;;;;;;;5084198;28;19953;-70
2023/10/04 09:15:25;;;;;;;;;;;;;;;;;;5064570;28;19962;-70
2023/10/04 09:17:57;;;;;;;;;;;;;;;;;;5067077;28;19979;-70
2023/10/04 09:22:00;;;;;;;;;;;;;;;;;;5106282;27;20466;-69
2023/10/04 09:24:26;;;;;;;692.35;331.30;;;;;;;;;;5104372;28;20415;-70
2023/10/04 09:26:53;;;;;;;630.05;324.25;;;;;;;;;;5103711;28;20027;-71
2023/10/04 09:30:25;;;;;;;458.70;286.25;;;;;;;;;;5060771;28;20809;-70
2023/10/04 09:32:52;;;;;;;425.67;276.92;;;;;;;;;;5063683;28;20109;-71
2023/10/04 09:35:21;;;;;;;448.02;285.42;;;;;;;;;;5066888;28;20036;-70
2023/10/04 09:39:44;;;;;;;439.13;279.30;;;;;;;;;;5088974;27;20358;-70
2023/10/04 09:42:14;;;;;;;359.83;252.57;;;;;;;;;;5088478;28;20059;-70
2023/10/04 09:44:40;;;;;;;;;;;;;;;;;;5073585;28;20396;-70
2023/10/04 09:47:09;;;;;;;506.45;301.40;;;;;;;;;;5064753;28;20480;-70
2023/10/04 09:51:12;;;;;;;;;;;;;;;;;;5106730;27;20621;-71
2023/10/04 09:53:39;;;;;;;;;;;;;;;;;;5106497;28;19912;-70
2023/10/04 09:56:05;;;;;;;;;;;;;;;;;;5094742;28;20249;-70
2023/10/04 09:58:32;;;;;;;;;;;;;;;;;;5089745;28;19913;-70
2023/10/04 10:00:58;;;;;;;;;;;;;;;;;;5090149;28;20485;-70
2023/10/04 10:04:56;;;;;;;;;;;;;;;;;;5149628;27;19912;-70
2023/10/04 10:07:24;;;;;;;;;;;;;;;;;;5149383;27;20026;-70
2023/10/04 10:09:51;;;;;;;;;;;;;;;;;;5149418;27;20006;-70
2023/10/04 10:12:17;;;;;;;;;;;;;;;;;;5116002;28;19912;-70
2023/10/04 10:14:42;;;;;;;;;;;;;;;;;;5110868;28;19961;-70
2023/10/04 10:17:10;;;;;;;;;;;;;;;;;;5123250;28;20010;-70
2023/10/04 10:19:36;;;;;;;;;;;;;;;;;;5124429;28;19915;-70
2023/10/04 10:22:02;;;;;;;;;;;;;;;;;;5124704;28;19961;-71
2023/10/04 10:24:28;;;;;;;;;;;;;;;;;;5120734;28;19923;-71
2023/10/04 10:26:54;;;;;;;;;;;;;;;;;;5123916;28;19911;-70
2023/10/04 10:29:20;;;;;;;;;;;;;;;;;;5126273;28;20391;-70
2023/10/04 10:31:46;;;;;;;;;;;;;;;;;;5109371;28;20275;-70
2023/10/04 10:34:12;;;;;;;;;;;;;;;;;;5126100;28;20271;-70
2023/10/04 10:36:38;;;;;;;;;;;;;;;;;;5126187;28;20230;-71
2023/10/04 10:39:04;;;;;;;;;;;;;;;;;;5117176;28;19908;-70
2023/10/04 10:41:30;;;;;;;;;;;;;;;;;;5121086;28;20056;-70
2023/10/04 10:43:56;;;;;;;;;;;;;;;;;;5109875;28;20006;-70
2023/10/04 10:46:22;;;;;;;;;;;;;;;;;;5109576;28;19908;-71
2023/10/04 10:48:48;;;;;;;;;;;;;;;;;;5123899;28;20378;-71
2023/10/04 10:51:34;;;;;;;525.47;269.97;;;;;;;;;;5103973;28;20755;-71
2023/10/04 10:54:01;;;;;;;463.48;288.90;;;;;;;;;;5128557;28;20079;-70
2023/10/04 10:58:39;;;;;;;;;;;;;;;;;;5089404;27;20121;-71
2023/10/04 11:01:05;;;;;;;;;;;;;;;;;;5090308;28;20275;-70
2023/10/04 11:03:31;;;;;;;;;;;;;;;;;;5089863;28;19938;-70
2023/10/04 11:05:57;;;;;;;;;;;;;;;;;;5088381;28;19944;-70
2023/10/04 11:08:23;;;;;;;;;;;;;;;;;;5089918;28;19944;-70
2023/10/04 11:10:49;;;;;;;;;;;;;;;;;;5091123;28;19908;-70
2023/10/04 11:13:17;;;;;;;;;;;;;;;;;;5090950;28;19904;-70
2023/10/04 11:15:46;;;;;;;;;;;;;;;;;;5090437;28;20359;-70
2023/10/04 11:18:12;;;;;;;;;;;;;;;;;;5088864;28;19912;-71
2023/10/04 11:20:39;;;;;;;;;;;;;;;;;;5087970;28;19966;-71
2023/10/04 11:23:07;;;;;;;;;;;;;;;;;;5087154;28;19912;-71
2023/10/04 11:25:33;;;;;;;;;;;;;;;;;;5088589;28;19946;-70
2023/10/04 11:27:59;;;;;;;;;;;;;;;;;;5088897;28;19951;-70
2023/10/04 11:30:26;;;;;;;;;;;;;;;;;;5088095;28;20452;-70
2023/10/04 11:32:52;;;;;;;;;;;;;;;;;;5089884;28;19927;-70
2023/10/04 11:35:19;;;;;;;;;;;;;;;;;;5090374;28;19904;-70
2023/10/04 11:37:45;;;;;;;;;;;;;;;;;;5089803;28;19913;-70
2023/10/04 11:40:11;;;;;;;;;;;;;;;;;;5090336;28;19911;-70
2023/10/04 11:42:37;;;;;;;;;;;;;;;;;;5090188;28;19986;-70
2023/10/04 11:45:03;;;;;;;;;;;;;;;;;;5088679;28;19951;-70
2023/10/04 11:47:31;;;;;;;;;;;;;;;;;;5090424;28;19904;-73
2023/10/04 11:49:59;;;;;;;;;;;;;;;;;;5090285;28;19904;-70
2023/10/04 11:52:25;;;;;;;;;;;;;;;;;;5089650;28;19927;-70
2023/10/04 11:54:53;;;;;;;;;;;;;;;;;;5090070;28;19954;-71
2023/10/04 11:57:19;;;;;;;;;;;;;;;;;;5089893;28;19951;-70
2023/10/04 11:59:45;;;;;;;;;;;;;;;;;;5089613;28;19940;-70
2023/10/04 12:02:11;;;;;;;;;;;;;;;;;;5089939;28;19919;-70
2023/10/04 12:04:37;;;;;;;;;;;;;;;;;;5089272;28;19904;-71
2023/10/04 12:07:03;;;;;;;;;;;;;;;;;;5089843;28;19912;-71
2023/10/04 12:09:33;;;;;;;;;;;;;;;;;;5078936;28;19912;-70
2023/10/04 12:11:59;;;;;;;;;;;;;;;;;;5074496;28;20377;-72
2023/10/04 12:14:27;;;;;;;;;;;;;;;;;;5075958;28;19990;-70
2023/10/04 12:16:53;;;;;;;;;;;;;;;;;;5075907;28;20011;-70
2023/10/04 12:19:19;;;;;;;;;;;;;;;;;;5075941;28;19947;-70
2023/10/04 12:21:45;;;;;;;;;;;;;;;;;;5076238;28;19908;-70
2023/10/04 12:24:11;;;;;;;;;;;;;;;;;;5075969;28;19950;-70
2023/10/04 12:26:37;;;;;;;;;;;;;;;;;;5075561;28;19927;-70
2023/10/04 12:29:04;;;;;;;;;;;;;;;;;;5075974;28;20356;-70
2023/10/04 12:31:30;;;;;;;;;;;;;;;;;;5076045;28;19910;-70
2023/10/04 12:33:56;;;;;;;;;;;;;;;;;;5075390;28;19949;-70
2023/10/04 12:36:25;;;;;;;;;;;;;;;;;;5074429;28;20428;-70
2023/10/04 12:38:51;;;;;;;;;;;;;;;;;;5075727;28;20381;-70
2023/10/04 12:41:18;;;;;;;;;;;;;;;;;;5075281;28;19943;-70
2023/10/04 12:43:44;;;;;;;;;;;;;;;;;;5075850;28;20038;-72
2023/10/04 12:46:10;;;;;;;;;;;;;;;;;;5061398;28;20389;-71
2023/10/04 12:48:36;;;;;;;;;;;;;;;;;;5072824;28;19930;-71
2023/10/04 12:51:02;;;;;;;;;;;;;;;;;;5073633;28;19904;-72
2023/10/04 12:53:28;;;;;;;;;;;;;;;;;;5073835;28;19911;-72
2023/10/04 12:55:54;;;;;;;;;;;;;;;;;;5073362;28;19914;-72
2023/10/04 12:58:20;;;;;;;;;;;;;;;;;;5074088;28;19920;-72
2023/10/04 13:00:46;;;;;;;;;;;;;;;;;;5074921;28;19957;-72
2023/10/04 13:03:12;;;;;;;;;;;;;;;;;;5075890;28;19991;-72
2023/10/04 13:05:42;;;;;;;;;;;;;;;;;;5075834;28;19947;-72
2023/10/04 13:08:08;;;;;;;;;;;;;;;;;;5075189;28;19952;-72
2023/10/04 13:10:36;;;;;;;;;;;;;;;;;;5075417;28;19904;-72
2023/10/04 13:13:03;;;;;;;;;;;;;;;;;;5075087;28;19904;-71
2023/10/04 13:15:29;;;;;;;;;;;;;;;;;;5073133;28;19912;-72
2023/10/04 13:17:55;;;;;;;;;;;;;;;;;;5073112;28;19920;-72
2023/10/04 13:20:25;;;;;;;;;;;;;;;;;;5074253;28;19904;-72
2023/10/04 13:22:52;;;;;;;;;;;;;;;;;;5073444;28;19905;-72
2023/10/04 13:25:18;;;;;;;;;;;;;;;;;;5075347;28;19928;-72
2023/10/04 13:27:45;;;;;;;;;;;;;;;;;;5073886;28;19908;-72
2023/10/04 13:30:10;;;;;;;;;;;;;;;;;;5072338;28;20261;-72
2023/10/04 13:32:37;;;;;;;;;;;;;;;;;;5071505;28;19915;-72
2023/10/04 13:35:06;;;;;;;;;;;;;;;;;;5071480;28;19910;-72
2023/10/04 13:37:32;;;;;;;;;;;;;;;;;;5071388;28;19912;-71
2023/10/04 13:39:58;;;;;;;;;;;;;;;;;;5072481;28;20003;-72
2023/10/04 13:42:24;;;;;;;;;;;;;;;;;;5073070;28;19904;-72
2023/10/04 13:44:50;;;;;;;;;;;;;;;;;;5071149;28;19904;-72
2023/10/04 13:47:18;;;;;;;;;;;;;;;;;;5074436;28;19987;-72
2023/10/04 13:49:44;;;;;;;;;;;;;;;;;;5073336;28;19905;-72
2023/10/04 13:52:10;;;;;;;;;;;;;;;;;;5074105;28;20352;-72
2023/10/04 13:54:40;;;;;;;;;;;;;;;;;;5074537;28;19980;-72
2023/10/04 13:57:06;;;;;;;;;;;;;;;;;;5073732;28;20360;-72
2023/10/04 13:59:34;;;;;;;;;;;;;;;;;;5074506;28;19995;-73
2023/10/04 14:02:01;;;;;;;;;;;;;;;;;;5074343;28;19904;-72
2023/10/04 14:04:27;;;;;;;;;;;;;;;;;;5074128;28;19924;-73
2023/10/04 14:06:53;;;;;;;;;;;;;;;;;;5074314;28;19912;-73
2023/10/04 14:09:22;;;;;;;;;;;;;;;;;;5074287;28;19973;-73
2023/10/04 14:11:48;;;;;;;;;;;;;;;;;;5073922;28;19927;-73
2023/10/04 14:14:14;;;;;;;;;;;;;;;;;;5074260;28;19934;-71
2023/10/04 14:16:41;;;;;;;;;;;;;;;;;;5074174;28;19920;-71
2023/10/04 14:19:09;;;;;;;;;;;;;;;;;;5073772;28;19974;-72
2023/10/04 14:21:35;;;;;;;;;;;;;;;;;;5074116;28;19911;-73
2023/10/04 14:24:01;;;;;;;;;;;;;;;;;;5074071;28;19987;-72
2023/10/04 14:26:28;;;;;;;;;;;;;;;;;;5073851;28;19912;-71
2023/10/04 14:28:54;;;;;;;;;;;;;;;;;;5074008;28;20280;-71
2023/10/04 14:31:22;;;;;;;;;;;;;;;;;;5073782;28;19904;-71
2023/10/04 14:33:48;;;;;;;;;;;;;;;;;;5073625;28;19911;-72
2023/10/04 14:36:14;;;;;;;;;;;;;;;;;;5074133;28;20382;-71
2023/10/04 14:38:40;;;;;;;;;;;;;;;;;;5073788;28;20011;-71
2023/10/04 14:41:06;;;;;;;;;;;;;;;;;;5073518;28;19950;-71
2023/10/04 14:43:32;;;;;;;;;;;;;;;;;;5073830;28;20386;-71
2023/10/04 14:45:58;;;;;;;;;;;;;;;;;;5073797;28;19908;-71
2023/10/04 14:48:24;;;;;;;;;;;;;;;;;;5073438;28;20426;-71
2023/10/04 14:50:53;;;;;;;;;;;;;;;;;;5073840;28;20352;-71
2023/10/04 14:53:19;;;;;;;;;;;;;;;;;;5073755;28;20413;-72
2023/10/04 14:55:48;;;;;;;;;;;;;;;;;;5074198;28;19905;-71
2023/10/04 14:58:14;;;;;;;;;;;;;;;;;;5073447;28;19916;-71
2023/10/04 15:00:40;;;;;;;;;;;;;;;;;;5073328;28;19980;-71
2023/10/04 15:03:06;;;;;;;;;;;;;;;;;;5073945;28;19939;-71
2023/10/04 15:05:32;;;;;;;;;;;;;;;;;;5073658;28;19904;-71
2023/10/04 15:07:59;;;;;;;;;;;;;;;;;;5073244;28;19905;-71
2023/10/04 15:10:25;;;;;;;;;;;;;;;;;;5073589;28;19911;-72
2023/10/04 15:12:53;;;;;;;;;;;;;;;;;;5073570;28;20423;-72
2023/10/04 15:15:19;;;;;;;;;;;;;;;;;;5073168;28;19993;-71
2023/10/04 15:17:45;;;;;;;;;;;;;;;;;;5073402;28;20356;-72
2023/10/04 15:20:11;;;;;;;;;;;;;;;;;;5072215;28;20323;-72
2023/10/04 15:22:40;;;;;;;;;;;;;;;;;;5073099;28;20003;-72
2023/10/04 15:25:07;;;;;;;;;;;;;;;;;;5073304;28;19905;-71
2023/10/04 15:27:33;;;;;;;;;;;;;;;;;;5073363;28;19911;-71
2023/10/04 15:29:59;;;;;;;;;;;;;;;;;;5072936;28;19990;-72
2023/10/04 15:32:25;;;;;;;;;;;;;;;;;;5073202;28;19904;-72
2023/10/04 15:34:51;;;;;;;;;;;;;;;;;;5073350;28;19950;-72
2023/10/04 15:37:17;;;;;;;;;;;;;;;;;;5072902;28;20011;-71
2023/10/04 15:39:43;;;;;;;;;;;;;;;;;;5073267;28;19905;-71
2023/10/04 15:42:10;;;;;;;;;;;;;;;;;;5073446;28;19915;-72
2023/10/04 15:44:36;;;;;;;;;;;;;;;;;;5075152;28;19908;-71
2023/10/04 15:47:02;;;;;;;;;;;;;;;;;;5077345;28;20352;-71
2023/10/04 15:49:29;;;;;;;;;;;;;;;;;;5077029;28;19908;-72
2023/10/04 15:51:55;;;;;;;;;;;;;;;;;;5076580;28;19904;-72
2023/10/04 15:54:21;;;;;;;;;;;;;;;;;;5077027;28;19911;-71
2023/10/04 15:56:47;;;;;;;260.15;231.52;;;;;;;;;;5075490;28;20427;-71
2023/10/04 15:59:13;;;;;;;;;;;;;;;;;;5076709;28;20029;-72
2023/10/04 16:01:39;;;;;;;;;;;;;;;;;;5076745;28;19908;-71
2023/10/04 16:04:05;;;;;;;;;;;;;;;;;;5076450;28;20012;-71
2023/10/04 16:06:31;;;;;;;;;;;;;;;;;;5076598;28;20306;-71
2023/10/04 16:08:58;;;;;;;;;;;;;;;;;;5076645;28;19904;-71
2023/10/04 16:11:24;;;;;;;;;;;;;;;;;;5076202;28;19904;-71
2023/10/04 16:13:50;;;;;;;;;;;;;;;;;;5076474;28;19963;-71
2023/10/04 16:16:16;;;;;;;;;;;;;;;;;;5076744;28;19954;-71
2023/10/04 16:18:42;;;;;;;;;;;;;;;;;;5075981;28;19913;-71
2023/10/04 16:21:08;;;;;;;;;;;;;;;;;;5076408;28;20356;-71
2023/10/04 16:23:34;;;;;;;;;;;;;;;;;;5076363;28;19904;-71
2023/10/04 16:26:00;;;;;;;;;;;;;;;;;;5074599;28;19962;-71
2023/10/04 16:28:26;;;;;;;;;;;;;;;;;;5076471;28;19923;-72
2023/10/04 16:30:52;;;;;;;;;;;;;;;;;;5076191;28;19911;-71
2023/10/04 16:33:19;;;;;;;;;;;;;;;;;;5075714;28;19904;-71
2023/10/04 16:35:45;;;;;;;;;;;;;;;;;;5076444;28;19904;-71
2023/10/04 16:38:11;;;;;;;;;;;;;;;;;;5076000;28;20300;-71
2023/10/04 16:40:38;;;;;;;;;;;;;;;;;;5075607;28;20376;-71
2023/10/04 16:43:04;;;;;;;;;;;;;;;;;;5076184;28;19905;-71
2023/10/04 16:45:30;;;;;;;;;;;;;;;;;;5075777;28;20000;-72
2023/10/04 16:47:56;;;;;;;;;;;;;;;;;;5075647;28;19904;-72
2023/10/04 16:50:23;;;;;;;;;;;;;;;;;;5074561;28;19908;-72
2023/10/04 16:52:50;;;;;;;;;;;;;;;;;;5075875;28;20296;-72
2023/10/04 16:55:16;;;;;;;;;;;;;;;;;;5075169;28;20425;-72